Time;durP1;ratioP1;P1;durP2;ratioP2;P2;SDS_P1;SDS_P2;PMS_P1;PMS_P2;Temp;Humidity;BMP_temperature;BMP_pressure;BME280_temperature;BME280_humidity;BME280_pressure;Samples;Min_cycle;Max_cycle;Signal;HPM_P1;HPM_P2
2021/05/12 00:00:16;;;;;;;13.50;9.63;;;;;;;9.88;78.91;101094.59;693761;28;1014;-45
2021/05/12 00:00:36;;;;;;;14.40;10.10;;;;;;;9.85;79.09;101105.22;693752;28;833;-45
2021/05/12 00:00:56;;;;;;;14.27;9.80;;;;;;;9.85;78.81;101103.47;693674;28;864;-44
2021/05/12 00:01:17;;;;;;;12.70;8.93;;;;;;;9.85;78.07;101100.81;693852;28;974;-44
2021/05/12 00:01:37;;;;;;;11.83;8.70;;;;;;;9.84;77.79;101101.75;693725;28;959;-46
2021/05/12 00:01:57;;;;;;;12.17;8.37;;;;;;;9.84;78.01;101099.13;693764;28;950;-47
2021/05/12 00:02:18;;;;;;;11.57;8.57;;;;;;;9.84;77.87;101103.50;693853;28;832;-46
2021/05/12 00:02:39;;;;;;;13.90;8.20;;;;;;;9.81;77.47;101099.22;693692;28;851;-45
2021/05/12 00:02:59;;;;;;;13.40;8.13;;;;;;;9.81;77.37;101101.84;693811;28;887;-44
2021/05/12 00:03:20;;;;;;;11.02;8.02;;;;;;;9.80;77.12;101108.00;693791;28;788;-45
2021/05/12 00:03:40;;;;;;;11.53;7.87;;;;;;;9.80;77.24;101104.50;693659;28;868;-44
2021/05/12 00:04:00;;;;;;;12.65;7.72;;;;;;;9.79;77.11;101105.44;693888;28;867;-44
2021/05/12 00:04:21;;;;;;;13.23;7.90;;;;;;;9.80;77.39;101108.00;693768;28;1967;-44
2021/05/12 00:04:41;;;;;;;14.23;8.07;;;;;;;9.80;77.54;101102.75;693654;28;965;-45
2021/05/12 00:05:03;;;;;;;11.77;7.67;;;;;;;9.80;77.17;101105.38;693871;28;942;-44
2021/05/12 00:05:25;;;;;;;11.75;7.20;;;;;;;9.81;76.91;101107.13;693319;28;1412;-44
2021/05/12 00:05:45;;;;;;;10.73;7.07;;;;;;;9.80;77.05;101108.00;693784;28;879;-44
2021/05/12 00:06:06;;;;;;;11.03;7.30;;;;;;;9.82;77.36;101106.19;693836;28;1042;-44
2021/05/12 00:06:26;;;;;;;10.48;7.38;;;;;;;9.80;77.05;101108.00;693612;28;1750;-44
2021/05/12 00:06:46;;;;;;;12.60;7.20;;;;;;;9.83;76.99;101109.69;693795;28;947;-45
2021/05/12 00:07:06;;;;;;;11.80;7.10;;;;;;;9.85;76.36;101105.22;693796;28;908;-46
2021/05/12 00:07:27;;;;;;;9.55;6.90;;;;;;;9.85;76.02;101106.09;693795;28;856;-45
2021/05/12 00:07:47;;;;;;;9.53;6.93;;;;;;;9.84;76.12;101114.03;693819;28;955;-45
2021/05/12 00:08:07;;;;;;;10.65;6.93;;;;;;;9.82;76.00;101102.69;693734;28;836;-44
2021/05/12 00:08:28;;;;;;;11.50;6.83;;;;;;;9.81;75.85;101101.00;693396;28;875;-44
2021/05/12 00:08:48;;;;;;;10.88;6.60;;;;;;;9.83;76.07;101104.41;693686;28;887;-45
2021/05/12 00:09:08;;;;;;;10.83;6.63;;;;;;;9.87;76.25;101108.66;693833;28;816;-45
2021/05/12 00:09:29;;;;;;;11.53;6.83;;;;;;;9.88;75.91;101103.34;693798;28;1020;-44
2021/05/12 00:09:49;;;;;;;11.93;6.70;;;;;;;9.92;75.60;101107.59;693541;28;1254;-45
2021/05/12 00:10:14;;;;;;;8.67;6.40;;;;;;;9.91;75.88;101105.88;693611;28;811;-45
2021/05/12 00:10:34;;;;;;;9.60;6.43;;;;;;;9.90;75.89;101101.50;693798;28;1012;-44
2021/05/12 00:11:01;;;;;;;11.33;6.20;;;;;;;9.91;75.40;101111.16;694103;28;892;-44
2021/05/12 00:11:21;;;;;;;10.68;6.60;;;;;;;9.84;75.60;101096.47;694554;28;1021;-44
2021/05/12 00:11:41;;;;;;;10.67;6.60;;;;;;;9.86;75.75;101113.06;694828;28;902;-44
2021/05/12 00:12:03;;;;;;;11.98;6.90;;;;;;;9.85;76.13;101105.22;695108;28;958;-45
2021/05/12 00:12:23;;;;;;;10.15;6.88;;;;;;;9.83;76.16;101105.28;694817;28;756;-45
2021/05/12 00:12:43;;;;;;;11.27;6.70;;;;;;;9.83;76.32;101102.63;694856;28;908;-45
2021/05/12 00:13:04;;;;;;;11.52;6.70;;;;;;;9.84;76.38;101103.50;694647;28;986;-44
2021/05/12 00:13:24;;;;;;;10.37;6.70;;;;;;;9.81;76.39;101108.88;694205;28;887;-44
2021/05/12 00:13:45;;;;;;;11.05;6.95;;;;;;;9.79;76.22;101100.16;693842;28;1356;-45
2021/05/12 00:14:05;;;;;;;10.67;6.80;;;;;;;9.79;75.78;101105.44;693960;28;1059;-44
2021/05/12 00:14:25;;;;;;;9.75;6.05;;;;;;;9.84;74.92;101107.00;694081;28;970;-46
2021/05/12 00:14:46;;;;;;;9.93;5.60;;;;;;;9.91;74.53;101102.38;694221;28;989;-45
2021/05/12 00:15:09;;;;;;;10.10;5.80;;;;;;;9.92;74.60;101104.09;693988;28;835;-44
2021/05/12 00:15:29;;;;;;;11.07;6.05;;;;;;;9.90;74.90;101111.19;693911;28;1025;-44
2021/05/12 00:15:50;;;;;;;11.90;6.00;;;;;;;9.91;75.24;101105.00;694230;28;931;-44
2021/05/12 00:16:11;;;;;;;9.57;5.97;;;;;;;9.91;75.60;101105.00;694171;28;890;-45
2021/05/12 00:16:31;;;;;;;9.98;6.28;;;;;;;9.91;75.30;101110.25;694540;28;1053;-45
2021/05/12 00:16:53;;;;;;;11.13;6.47;;;;;;;9.87;74.91;101106.88;694599;28;955;-45
2021/05/12 00:17:18;;;;;;;9.95;6.07;;;;;;;9.94;74.82;101111.03;694195;28;874;-47
2021/05/12 00:17:39;;;;;;;10.20;6.03;;;;;;;9.99;74.36;101101.19;693750;28;893;-45
2021/05/12 00:18:07;;;;;;;11.25;6.32;;;;;;;9.98;74.55;101104.75;694025;28;910;-45
2021/05/12 00:18:33;;;;;;;11.55;6.35;;;;;;;9.98;74.63;101104.75;693567;28;898;-44
2021/05/12 00:18:53;;;;;;;9.80;6.20;;;;;;;9.95;74.57;101107.50;693772;28;894;-45
2021/05/12 00:19:14;;;;;;;9.70;6.32;;;;;;;9.96;74.72;101103.94;694165;28;826;-48
2021/05/12 00:19:36;;;;;;;9.43;6.23;;;;;;;9.95;74.34;101109.28;694134;28;884;-44
2021/05/12 00:20:00;;;;;;;10.20;6.50;;;;;;;9.97;74.71;101107.41;693896;28;1312;-46
2021/05/12 00:20:26;;;;;;;10.13;6.50;;;;;;;9.95;74.99;101107.50;694197;28;898;-46
2021/05/12 00:20:47;;;;;;;10.35;6.38;;;;;;;9.92;75.27;101102.34;693818;28;915;-46
2021/05/12 00:21:10;;;;;;;9.40;6.10;;;;;;;9.91;75.62;101105.88;694322;28;1069;-52
2021/05/12 00:21:50;;;;;;;10.15;6.53;;;;;;;9.91;75.51;101107.63;694017;28;879;-45
2021/05/12 00:22:59;;;;;;;10.07;7.00;;;;;;;9.94;75.30;101104.91;693868;28;1002;-46
2021/05/12 00:23:39;;;;;;;9.98;6.93;;;;;;;9.94;75.14;101103.16;693750;28;840;-45
2021/05/12 00:24:00;;;;;;;10.10;6.85;;;;;;;9.92;75.05;101107.59;693677;28;973;-45
2021/05/12 00:24:20;;;;;;;10.77;6.90;;;;;;;9.90;75.19;101109.41;691100;28;1965;-45
2021/05/12 00:24:43;;;;;;;9.97;6.83;;;;;;;9.87;75.21;101104.25;686346;28;1382;-49
2021/05/12 00:25:06;;;;;;;9.82;7.15;;;;;;;9.87;75.11;101106.88;691689;28;909;-44
2021/05/12 00:25:27;;;;;;;11.23;7.60;;;;;;;9.86;75.09;101107.81;691052;28;895;-45
2021/05/12 00:25:47;;;;;;;11.50;7.28;;;;;;;9.83;74.91;101107.91;691190;28;861;-44
2021/05/12 00:26:08;;;;;;;10.00;7.03;;;;;;;9.82;75.22;101111.47;691252;28;1026;-45
2021/05/12 00:26:41;;;;;;;10.23;6.93;;;;;;;9.82;74.98;101111.47;691231;28;1037;-45
2021/05/12 00:27:05;;;;;;;10.18;6.80;;;;;;;9.83;74.96;101113.16;691066;28;914;-44
2021/05/12 00:27:28;;;;;;;11.30;6.80;;;;;;;9.84;74.67;101111.38;691241;28;862;-45
2021/05/12 00:27:49;;;;;;;9.20;6.40;;;;;;;9.82;74.33;101110.59;691391;28;922;-44
2021/05/12 00:28:09;;;;;;;9.48;6.13;;;;;;;9.80;74.22;101108.00;690643;28;1355;-44
2021/05/12 00:28:29;;;;;;;9.40;5.93;;;;;;;9.84;73.94;101108.75;691238;28;796;-45
2021/05/12 00:28:50;;;;;;;8.52;5.50;;;;;;;9.81;73.52;101115.00;691954;28;1079;-45
2021/05/12 00:29:15;;;;;;;9.03;5.40;;;;;;;9.78;73.29;101112.47;691858;28;978;-46
2021/05/12 00:29:35;;;;;;;9.43;5.50;;;;;;;9.77;73.52;101112.50;691527;28;959;-45
2021/05/12 00:30:04;;;;;;;8.55;5.35;;;;;;;9.76;73.16;101114.28;690957;28;1388;-45
2021/05/12 00:30:25;;;;;;;7.97;5.05;;;;;;;9.74;73.27;101114.34;690923;28;892;-46
2021/05/12 00:30:45;;;;;;;9.48;5.45;;;;;;;9.75;73.86;101112.59;690874;28;903;-45
2021/05/12 00:31:05;;;;;;;9.38;5.45;;;;;;;9.74;73.76;101111.72;690796;28;911;-48
2021/05/12 00:31:26;;;;;;;9.03;5.40;;;;;;;9.73;73.38;101117.03;691018;28;844;-46
2021/05/12 00:31:49;;;;;;;10.50;5.47;;;;;;;9.73;73.60;101117.03;690753;28;974;-45
2021/05/12 00:32:09;;;;;;;9.18;5.35;;;;;;;9.75;73.43;101115.22;691134;28;902;-46
2021/05/12 00:32:29;;;;;;;8.65;4.97;;;;;;;9.73;73.58;101112.63;691052;28;890;-47
2021/05/12 00:32:50;;;;;;;8.00;4.67;;;;;;;9.77;73.21;101113.38;691218;28;800;-47
2021/05/12 00:33:15;;;;;;;8.05;4.53;;;;;;;9.75;73.12;101116.06;690940;28;918;-47
2021/05/12 00:33:38;;;;;;;9.70;5.05;;;;;;;9.75;73.10;101116.06;690442;28;1398;-47
2021/05/12 00:33:59;;;;;;;9.35;5.00;;;;;;;9.74;73.21;101114.34;690983;28;1026;-46
2021/05/12 00:34:19;;;;;;;9.00;4.97;;;;;;;9.76;73.44;101116.94;690920;28;834;-45
2021/05/12 00:34:40;;;;;;;9.00;5.00;;;;;;;9.76;74.02;101116.94;690973;28;1194;-46
2021/05/12 00:35:00;;;;;;;9.90;5.28;;;;;;;9.74;73.96;101124.03;691115;28;777;-45
2021/05/12 00:35:21;;;;;;;8.87;5.90;;;;;;;9.78;74.25;101119.53;692476;28;1472;-45
2021/05/12 00:35:41;;;;;;;10.13;5.97;;;;;;;9.78;74.48;101120.38;693789;28;903;-44
2021/05/12 00:36:02;;;;;;;8.80;5.40;;;;;;;9.79;74.79;101118.59;693601;28;883;-46
2021/05/12 00:36:23;;;;;;;10.03;5.53;;;;;;;9.76;74.84;101116.94;693654;28;839;-45
2021/05/12 00:36:43;;;;;;;10.35;5.47;;;;;;;9.75;75.00;101117.84;693815;28;884;-48
2021/05/12 00:37:03;;;;;;;11.80;5.55;;;;;;;9.75;75.36;101120.47;693690;28;812;-45
2021/05/12 00:37:24;;;;;;;11.33;5.40;;;;;;;9.73;75.10;101117.03;693416;28;1420;-45
2021/05/12 00:37:44;;;;;;;8.70;5.53;;;;;;;9.73;75.32;101117.03;693512;28;927;-46
2021/05/12 00:38:04;;;;;;;8.30;5.55;;;;;;;9.73;75.24;101115.25;693179;28;1476;-44
2021/05/12 00:38:27;;;;;;;9.93;5.87;;;;;;;9.72;75.54;101115.31;692160;28;1387;-44
2021/05/12 00:38:47;;;;;;;9.07;5.40;;;;;;;9.70;75.66;101117.13;693456;28;875;-44
2021/05/12 00:39:13;;;;;;;9.40;5.93;;;;;;;9.74;75.52;101122.25;693522;28;989;-44
2021/05/12 00:39:36;;;;;;;9.77;5.72;;;;;;;9.75;75.06;101120.47;693665;28;867;-44
2021/05/12 00:39:57;;;;;;;8.80;5.63;;;;;;;9.74;75.21;101117.00;693438;28;1517;-44
2021/05/12 00:40:19;;;;;;;9.03;5.60;;;;;;;9.72;75.10;101115.31;693645;28;1050;-45
2021/05/12 00:40:39;;;;;;;9.50;5.28;;;;;;;9.74;75.16;101118.75;693632;28;902;-44
2021/05/12 00:41:03;;;;;;;9.27;5.37;;;;;;;9.74;74.84;101118.75;693714;28;959;-45
2021/05/12 00:41:24;;;;;;;9.25;5.15;;;;;;;9.77;74.97;101113.38;693663;28;969;-45
2021/05/12 00:41:44;;;;;;;9.98;5.28;;;;;;;9.77;74.93;101118.63;693594;28;994;-45
2021/05/12 00:42:10;;;;;;;9.53;5.30;;;;;;;9.78;74.90;101119.53;693592;28;955;-44
2021/05/12 00:42:32;;;;;;;9.88;5.25;;;;;;;9.74;74.67;101113.50;693562;28;978;-44
2021/05/12 00:42:52;;;;;;;8.27;4.85;;;;;;;9.72;75.02;101120.56;693733;28;954;-44
2021/05/12 00:43:12;;;;;;;9.17;4.73;;;;;;;9.70;75.06;101117.13;693722;28;927;-44
2021/05/12 00:43:36;;;;;;;10.17;4.73;;;;;;;9.68;75.20;101124.22;693606;28;827;-45
2021/05/12 00:43:56;;;;;;;9.35;5.15;;;;;;;9.67;75.35;101118.09;693658;28;938;-45
2021/05/12 00:44:20;;;;;;;9.17;4.93;;;;;;;9.68;75.29;101116.34;693631;28;1930;-44
2021/05/12 00:44:40;;;;;;;9.82;4.88;;;;;;;9.68;75.29;101118.97;693687;28;942;-45
2021/05/12 00:45:03;;;;;;;9.57;4.77;;;;;;;9.67;75.62;101122.50;693813;28;867;-43
2021/05/12 00:45:24;;;;;;;8.73;4.68;;;;;;;9.67;76.33;101115.47;693531;28;908;-46
2021/05/12 00:45:44;;;;;;;8.70;4.80;;;;;;;9.69;75.94;101118.91;693638;28;872;-46
2021/05/12 00:46:07;;;;;;;9.53;4.63;;;;;;;9.69;75.48;101113.63;693760;28;796;-44
2021/05/12 00:46:27;;;;;;;7.66;4.10;;;;;;;9.70;74.80;101117.13;693574;28;958;-44
2021/05/12 00:46:50;;;;;;;7.90;4.20;;;;;;;9.68;74.45;101119.81;693742;28;895;-44
2021/05/12 00:47:11;;;;;;;8.68;4.28;;;;;;;9.70;74.38;101117.13;693499;28;1764;-43
2021/05/12 00:47:38;;;;;;;8.00;4.20;;;;;;;9.71;74.61;101118.88;693777;28;792;-47
2021/05/12 00:47:59;;;;;;;9.15;3.72;;;;;;;9.73;74.43;101123.16;693585;28;883;-44
2021/05/12 00:48:25;;;;;;;9.98;3.92;;;;;;;9.71;74.01;101125.00;693595;28;912;-44
2021/05/12 00:48:46;;;;;;;8.02;3.70;;;;;;;9.71;74.01;101118.88;693542;28;938;-44
2021/05/12 00:49:06;;;;;;;6.33;3.20;;;;;;;9.70;73.83;101120.66;693712;28;814;-43
2021/05/12 00:49:29;;;;;;;6.70;3.23;;;;;;;9.69;73.73;101115.41;693753;28;832;-44
2021/05/12 00:49:49;;;;;;;7.18;3.55;;;;;;;9.68;73.94;101121.59;693586;28;1324;-44
2021/05/12 00:50:10;;;;;;;8.20;3.90;;;;;;;9.66;74.63;101126.03;693721;28;947;-46
2021/05/12 00:50:30;;;;;;;7.53;3.80;;;;;;;9.66;74.80;101121.63;693766;28;810;-44
2021/05/12 00:50:50;;;;;;;7.70;3.80;;;;;;;9.65;74.76;101119.06;693602;28;1057;-44
2021/05/12 00:51:11;;;;;;;7.35;3.72;;;;;;;9.65;74.90;101119.06;693726;28;965;-44
2021/05/12 00:51:32;;;;;;;7.00;3.77;;;;;;;9.63;74.94;101121.72;693643;28;824;-44
2021/05/12 00:51:53;;;;;;;7.32;3.78;;;;;;;9.61;74.95;101118.31;693544;28;899;-44
2021/05/12 00:52:16;;;;;;;8.30;3.67;;;;;;;9.61;74.78;101123.56;693607;28;1148;-44
2021/05/12 00:52:36;;;;;;;7.18;3.83;;;;;;;9.61;74.67;101126.19;693156;28;1014;-44
2021/05/12 00:52:56;;;;;;;6.90;3.83;;;;;;;9.58;74.76;101112.28;693718;28;867;-45
2021/05/12 00:53:17;;;;;;;7.70;3.70;;;;;;;9.58;74.23;101118.41;693773;28;772;-45
2021/05/12 00:53:37;;;;;;;7.33;3.90;;;;;;;9.60;74.19;101120.97;693593;28;1002;-45
2021/05/12 00:53:58;;;;;;;7.65;3.92;;;;;;;9.59;74.46;101120.13;693660;28;824;-45
2021/05/12 00:54:18;;;;;;;7.80;3.73;;;;;;;9.58;75.16;101128.06;693592;28;927;-44
2021/05/12 00:54:38;;;;;;;7.77;3.80;;;;;;;9.57;74.97;101121.09;693741;28;832;-45
2021/05/12 00:55:20;;;;;;;7.27;3.60;;;;;;;9.59;75.52;101119.25;693489;28;1577;-44
2021/05/12 00:55:40;;;;;;;8.55;4.00;;;;;;;9.62;75.06;101121.78;693532;28;1450;-44
2021/05/12 00:56:04;;;;;;;7.40;3.80;;;;;;;9.59;75.10;101119.25;693580;28;815;-44
2021/05/12 00:56:24;;;;;;;8.15;3.60;;;;;;;9.58;75.15;101121.03;693645;28;1078;-44
2021/05/12 00:56:44;;;;;;;8.63;3.70;;;;;;;9.59;74.90;101116.63;693568;28;990;-45
2021/05/12 00:57:05;;;;;;;7.27;3.80;;;;;;;9.57;74.81;101126.38;693493;28;977;-44
2021/05/12 00:57:25;;;;;;;7.30;3.63;;;;;;;9.56;74.93;101114.09;693716;28;784;-46
2021/05/12 00:57:46;;;;;;;7.32;3.70;;;;;;;9.56;74.84;101122.00;693708;28;930;-47
2021/05/12 00:58:09;;;;;;;6.67;3.67;;;;;;;9.54;74.91;101118.56;693578;28;822;-44
2021/05/12 00:58:31;;;;;;;7.20;3.95;;;;;;;9.54;75.18;101118.56;693280;28;868;-43
2021/05/12 00:58:51;;;;;;;8.80;3.95;;;;;;;9.52;75.14;101132.63;693672;28;910;-43
2021/05/12 00:59:11;;;;;;;6.97;3.60;;;;;;;9.50;75.00;101121.28;693607;28;896;-43
2021/05/12 00:59:34;;;;;;;6.77;3.70;;;;;;;9.50;75.14;101113.41;693813;28;864;-43
2021/05/12 00:59:54;;;;;;;6.75;3.75;;;;;;;9.49;75.29;101129.22;693476;28;1238;-44
2021/05/12 01:00:22;;;;;;;8.37;4.17;;;;;;;9.48;75.38;101125.75;693642;28;821;-46
2021/05/12 01:00:43;;;;;;;8.43;4.00;;;;;;;9.46;75.50;101132.84;693693;28;836;-44
2021/05/12 01:01:03;;;;;;;8.02;3.95;;;;;;;9.51;75.68;101122.16;693669;28;911;-44
2021/05/12 01:01:24;;;;;;;7.40;3.80;;;;;;;9.49;75.73;101122.19;693668;28;982;-44
2021/05/12 01:01:44;;;;;;;7.17;3.83;;;;;;;9.49;75.84;101130.06;693606;28;915;-43
2021/05/12 01:02:07;;;;;;;8.30;4.10;;;;;;;9.50;75.91;101120.44;693576;28;947;-47
2021/05/12 01:02:32;;;;;;;9.15;4.10;;;;;;;9.50;75.63;101120.44;693677;28;915;-44
2021/05/12 01:02:53;;;;;;;6.68;3.78;;;;;;;9.49;75.67;101130.06;693614;28;926;-44
2021/05/12 01:03:13;;;;;;;8.30;3.70;;;;;;;9.48;75.38;101119.63;693595;28;901;-45
2021/05/12 01:03:33;;;;;;;7.40;3.83;;;;;;;9.46;75.34;101132.84;693681;28;898;-45
2021/05/12 01:03:56;;;;;;;7.00;4.00;;;;;;;9.46;75.50;101134.59;693674;28;1181;-44
2021/05/12 01:04:17;;;;;;;7.53;3.83;;;;;;;9.43;75.73;101127.66;693356;28;1965;-45
2021/05/12 01:04:40;;;;;;;7.60;3.90;;;;;;;9.43;75.76;101127.66;693745;28;850;-43
2021/05/12 01:05:01;;;;;;;8.32;4.13;;;;;;;9.47;76.01;101128.44;693732;28;864;-45
2021/05/12 01:05:58;;;;;;;7.27;4.07;;;;;;;9.50;76.35;101121.28;693554;28;974;-44
2021/05/12 01:06:30;;;;;;;8.85;4.30;;;;;;;9.47;76.41;101128.44;693653;28;885;-44
2021/05/12 01:06:51;;;;;;;7.95;4.05;;;;;;;9.48;76.14;101133.63;693664;28;963;-44
2021/05/12 01:07:11;;;;;;;6.83;3.87;;;;;;;9.46;76.26;101134.59;693544;28;916;-45
2021/05/12 01:07:32;;;;;;;6.60;3.80;;;;;;;9.44;76.30;101125.91;692995;28;1213;-44
2021/05/12 01:07:52;;;;;;;6.80;3.70;;;;;;;9.43;76.42;101126.81;693529;28;990;-44
2021/05/12 01:08:12;;;;;;;9.13;4.13;;;;;;;9.40;76.38;101135.66;693494;28;1472;-45
2021/05/12 01:08:32;;;;;;;7.83;4.10;;;;;;;9.39;76.86;101133.91;690607;28;789;-44
2021/05/12 01:08:53;;;;;;;6.75;3.90;;;;;;;9.39;76.86;101133.91;690961;28;974;-45
2021/05/12 01:09:15;;;;;;;8.60;4.13;;;;;;;9.39;76.67;101128.66;690926;28;1049;-44
2021/05/12 01:09:36;;;;;;;9.77;4.32;;;;;;;9.40;76.54;101134.81;690921;28;962;-45
2021/05/12 01:09:56;;;;;;;9.03;4.20;;;;;;;9.39;76.71;101139.19;690725;28;1312;-44
2021/05/12 01:10:16;;;;;;;7.55;4.20;;;;;;;9.35;76.68;101132.31;690815;28;1293;-46
2021/05/12 01:10:37;;;;;;;7.23;4.10;;;;;;;9.35;76.64;101136.72;690772;28;1014;-45
2021/05/12 01:10:57;;;;;;;7.93;4.00;;;;;;;9.33;76.78;101131.50;690930;28;851;-45
2021/05/12 01:11:17;;;;;;;7.38;4.10;;;;;;;9.35;76.74;101132.31;690792;28;1440;-45
2021/05/12 01:11:40;;;;;;;8.23;4.30;;;;;;;9.36;77.25;101134.03;693424;28;1289;-46
2021/05/12 01:12:00;;;;;;;8.55;4.18;;;;;;;9.36;77.15;101130.53;693504;28;893;-44
2021/05/12 01:12:21;;;;;;;7.73;4.20;;;;;;;9.36;77.56;101128.78;693609;28;836;-43
2021/05/12 01:12:41;;;;;;;7.85;4.40;;;;;;;9.38;77.33;101136.63;693419;28;876;-44
2021/05/12 01:13:04;;;;;;;8.37;4.07;;;;;;;9.36;77.63;101131.41;693659;28;838;-43
2021/05/12 01:13:26;;;;;;;8.77;4.15;;;;;;;9.35;77.97;101131.44;693414;28;926;-45
2021/05/12 01:13:48;;;;;;;7.97;4.13;;;;;;;9.34;77.84;101127.97;693493;28;863;-43
2021/05/12 01:14:12;;;;;;;7.45;4.30;;;;;;;9.32;78.05;101132.41;693554;28;836;-46
2021/05/12 01:14:33;;;;;;;8.10;4.10;;;;;;;9.30;77.90;101128.13;693292;28;1071;-45
2021/05/12 01:14:53;;;;;;;9.30;4.30;;;;;;;9.28;77.85;101128.16;693609;28;840;-45
2021/05/12 01:15:14;;;;;;;10.10;4.57;;;;;;;9.28;77.65;101130.78;693538;28;915;-44
2021/05/12 01:15:34;;;;;;;8.95;4.22;;;;;;;9.26;77.62;101122.94;693527;28;887;-44
2021/05/12 01:15:54;;;;;;;8.70;4.15;;;;;;;9.26;77.65;101130.00;693457;28;1285;-44
2021/05/12 01:16:18;;;;;;;7.77;4.00;;;;;;;9.26;77.71;101130.84;693498;28;958;-43
2021/05/12 01:16:40;;;;;;;8.05;4.53;;;;;;;9.27;77.38;101134.31;693522;28;1060;-43
2021/05/12 01:17:00;;;;;;;8.43;4.40;;;;;;;9.26;77.86;101128.22;693542;28;907;-45
2021/05/12 01:17:20;;;;;;;7.67;4.23;;;;;;;9.27;78.07;101126.44;693637;28;856;-44
2021/05/12 01:17:44;;;;;;;8.33;4.17;;;;;;;9.25;78.57;101128.25;693481;28;829;-44
2021/05/12 01:18:20;;;;;;;8.93;4.50;;;;;;;9.27;78.32;101131.69;693450;28;990;-44
2021/05/12 01:18:43;;;;;;;7.80;4.10;;;;;;;9.26;78.26;101127.34;693027;28;914;-44
2021/05/12 01:19:04;;;;;;;9.13;4.10;;;;;;;9.27;78.46;101129.06;693338;28;1420;-44
2021/05/12 01:19:26;;;;;;;8.57;4.33;;;;;;;9.25;78.35;101131.72;693569;28;1006;-44
2021/05/12 01:19:48;;;;;;;6.93;4.20;;;;;;;9.24;78.28;101127.38;693294;28;1255;-44
2021/05/12 01:20:11;;;;;;;8.30;4.28;;;;;;;9.22;78.15;101126.59;693504;28;1040;-45
2021/05/12 01:20:35;;;;;;;8.98;4.20;;;;;;;9.22;78.38;101131.84;693646;28;943;-45
2021/05/12 01:20:56;;;;;;;9.25;4.10;;;;;;;9.21;78.37;101126.63;693522;28;909;-44
2021/05/12 01:21:16;;;;;;;9.48;4.25;;;;;;;9.20;78.28;101132.81;693523;28;1542;-43
2021/05/12 01:21:37;;;;;;;8.33;4.33;;;;;;;9.18;78.62;101131.97;693476;28;820;-44
2021/05/12 01:21:57;;;;;;;7.53;4.10;;;;;;;9.16;78.52;101126.78;693569;28;843;-44
2021/05/12 01:22:18;;;;;;;8.27;4.03;;;;;;;9.18;78.65;101134.59;693605;28;856;-45
2021/05/12 01:22:39;;;;;;;9.05;4.50;;;;;;;9.16;78.64;101132.03;693398;28;1017;-45
2021/05/12 01:22:59;;;;;;;9.65;4.93;;;;;;;9.15;78.62;101132.97;693563;28;870;-45
2021/05/12 01:23:23;;;;;;;8.37;4.63;;;;;;;9.15;78.57;101124.19;693595;28;979;-45
2021/05/12 01:23:47;;;;;;;9.02;4.63;;;;;;;9.16;79.10;101131.19;693479;28;840;-44
2021/05/12 01:24:08;;;;;;;8.45;4.53;;;;;;;9.14;79.04;101127.72;693454;28;804;-45
2021/05/12 01:24:28;;;;;;;8.38;4.45;;;;;;;9.13;78.80;101128.66;693395;28;1907;-45
2021/05/12 01:24:51;;;;;;;8.45;4.32;;;;;;;9.12;79.31;101126.91;693585;28;954;-45
2021/05/12 01:25:11;;;;;;;7.97;4.55;;;;;;;9.16;79.15;101132.03;693505;28;880;-45
2021/05/12 01:25:32;;;;;;;8.80;4.82;;;;;;;9.16;79.26;101136.44;693554;28;947;-44
2021/05/12 01:25:56;;;;;;;9.80;4.87;;;;;;;9.16;79.18;101136.44;693232;28;919;-44
2021/05/12 01:26:21;;;;;;;8.63;4.50;;;;;;;9.16;79.27;101133.81;693432;28;963;-44
2021/05/12 01:26:42;;;;;;;7.55;4.40;;;;;;;9.14;79.19;101132.97;693587;28;947;-44
2021/05/12 01:27:07;;;;;;;8.03;4.47;;;;;;;9.14;79.41;101132.97;693467;28;792;-44
2021/05/12 01:27:30;;;;;;;8.48;4.90;;;;;;;9.15;79.41;101134.69;693570;28;897;-44
2021/05/12 01:27:51;;;;;;;8.68;4.60;;;;;;;9.15;79.52;101134.69;693422;28;1034;-44
2021/05/12 01:28:11;;;;;;;8.07;4.60;;;;;;;9.12;79.73;101134.78;693432;28;845;-44
2021/05/12 01:28:35;;;;;;;7.90;4.30;;;;;;;9.12;79.40;101135.69;693199;28;859;-45
2021/05/12 01:28:55;;;;;;;8.23;4.30;;;;;;;9.12;79.07;101140.06;693489;28;1041;-44
2021/05/12 01:29:16;;;;;;;8.90;4.60;;;;;;;9.11;79.36;101141.81;693640;28;868;-44
2021/05/12 01:29:42;;;;;;;9.60;4.60;;;;;;;9.11;79.04;101135.72;693455;28;1026;-44
2021/05/12 01:30:05;;;;;;;9.73;4.70;;;;;;;9.11;78.91;101143.59;693449;28;954;-44
2021/05/12 01:30:25;;;;;;;7.95;4.32;;;;;;;9.17;78.65;101135.53;693352;28;1660;-45
2021/05/12 01:31:02;;;;;;;9.48;4.85;;;;;;;9.14;77.74;101133.84;693597;28;931;-44
2021/05/12 01:31:30;;;;;;;8.57;4.68;;;;;;;9.14;78.41;101136.47;693530;28;908;-45
2021/05/12 01:31:52;;;;;;;9.18;4.50;;;;;;;9.14;78.72;101138.25;693592;28;804;-44
2021/05/12 01:32:16;;;;;;;9.85;4.95;;;;;;;9.13;78.65;101132.13;693269;28;1166;-44
2021/05/12 01:32:36;;;;;;;8.60;4.28;;;;;;;9.12;78.56;101134.78;693575;28;887;-44
2021/05/12 01:33:00;;;;;;;8.50;4.10;;;;;;;9.13;78.63;101131.28;693595;28;982;-44
2021/05/12 01:33:20;;;;;;;8.55;4.53;;;;;;;9.11;78.80;101133.94;693413;28;938;-44
2021/05/12 01:33:41;;;;;;;8.27;4.55;;;;;;;9.10;78.86;101136.63;693495;28;1030;-44
2021/05/12 01:34:03;;;;;;;9.07;4.57;;;;;;;9.10;79.05;101132.22;693596;28;895;-44
2021/05/12 01:34:24;;;;;;;9.00;4.55;;;;;;;9.09;79.27;101135.78;693336;28;962;-45
2021/05/12 01:34:47;;;;;;;9.30;4.73;;;;;;;9.07;79.36;101134.09;693573;28;1042;-45
2021/05/12 01:35:10;;;;;;;11.55;4.75;;;;;;;9.07;79.25;101136.72;693465;28;1081;-44
2021/05/12 01:35:31;;;;;;;9.50;4.60;;;;;;;9.04;79.37;101133.25;693462;28;933;-45
2021/05/12 01:35:51;;;;;;;9.90;4.70;;;;;;;9.03;79.56;101131.53;693612;28;943;-45
2021/05/12 01:36:12;;;;;;;9.85;4.90;;;;;;;9.04;79.70;101137.66;693397;28;1003;-43
2021/05/12 01:36:34;;;;;;;9.23;4.47;;;;;;;9.04;79.81;101137.66;693533;28;975;-44
2021/05/12 01:36:57;;;;;;;8.25;4.20;;;;;;;9.04;79.84;101142.91;693630;28;1030;-46
2021/05/12 01:37:20;;;;;;;8.75;4.70;;;;;;;9.03;79.74;101136.81;693651;28;1029;-45
2021/05/12 01:37:40;;;;;;;9.73;4.97;;;;;;;9.02;80.10;101145.63;693697;28;1167;-45
2021/05/12 01:38:03;;;;;;;9.33;5.00;;;;;;;9.03;80.06;101143.84;693560;28;1175;-45
2021/05/12 01:38:28;;;;;;;8.02;4.70;;;;;;;9.01;80.00;101141.25;693246;28;939;-47
2021/05/12 01:38:49;;;;;;;8.07;4.75;;;;;;;9.02;80.24;101127.22;693597;28;861;-46
2021/05/12 01:39:10;;;;;;;9.38;4.85;;;;;;;9.02;80.38;101140.34;693559;28;931;-44
2021/05/12 01:39:31;;;;;;;8.55;4.82;;;;;;;9.00;80.07;101139.53;693469;28;891;-45
2021/05/12 01:39:51;;;;;;;8.63;4.80;;;;;;;9.01;80.36;101143.00;693419;28;1415;-45
2021/05/12 01:40:12;;;;;;;9.73;5.00;;;;;;;9.00;80.14;101142.16;693454;28;1057;-44
2021/05/12 01:40:36;;;;;;;10.52;5.18;;;;;;;8.99;80.04;101140.44;693350;28;808;-45
2021/05/12 01:41:01;;;;;;;9.70;5.40;;;;;;;9.00;80.12;101136.03;693463;28;1089;-46
2021/05/12 01:41:23;;;;;;;9.77;5.38;;;;;;;9.01;79.77;101141.25;693653;28;940;-45
2021/05/12 01:41:44;;;;;;;9.23;4.95;;;;;;;9.00;79.66;101142.16;693565;28;866;-45
2021/05/12 01:42:04;;;;;;;9.88;5.22;;;;;;;9.00;79.89;101142.16;693602;28;943;-45
2021/05/12 01:42:25;;;;;;;9.02;5.10;;;;;;;9.01;80.10;101137.75;693458;28;930;-45
2021/05/12 01:42:45;;;;;;;8.07;5.10;;;;;;;9.00;79.95;101130.78;693724;28;799;-45
2021/05/12 01:43:05;;;;;;;8.30;4.88;;;;;;;9.00;80.07;101139.53;693783;28;1013;-46
2021/05/12 01:43:26;;;;;;;9.20;5.07;;;;;;;8.98;80.17;101138.72;693687;28;986;-45
2021/05/12 01:43:46;;;;;;;9.83;5.30;;;;;;;9.00;80.25;101139.53;693674;28;838;-45
2021/05/12 01:44:11;;;;;;;10.10;5.33;;;;;;;9.01;80.70;101138.59;693712;28;895;-46
2021/05/12 01:44:31;;;;;;;10.35;5.45;;;;;;;9.04;80.51;101138.50;693484;28;1969;-46
2021/05/12 01:44:51;;;;;;;10.75;5.80;;;;;;;9.06;80.55;101140.25;693596;28;912;-48
2021/05/12 01:45:12;;;;;;;10.80;5.77;;;;;;;9.04;80.44;101138.50;693623;28;855;-45
2021/05/12 01:45:32;;;;;;;10.75;5.30;;;;;;;9.03;80.54;101142.06;693717;28;820;-47
2021/05/12 01:45:55;;;;;;;8.90;5.30;;;;;;;9.02;80.26;101135.09;693503;28;1041;-45
2021/05/12 01:46:16;;;;;;;9.52;5.50;;;;;;;9.01;80.35;101143.88;693530;28;935;-45
2021/05/12 01:46:38;;;;;;;10.53;5.73;;;;;;;9.01;80.09;101146.50;693554;28;927;-47
2021/05/12 01:46:58;;;;;;;11.80;5.95;;;;;;;8.98;79.55;101144.00;693442;28;864;-46
2021/05/12 01:47:19;;;;;;;10.40;5.70;;;;;;;8.98;79.60;101141.34;693156;28;1203;-47